Terminal Aerodrome Forecast
Issued by NWS

Home | Current Version | Previous Version | Text Only | Print | Product List | Glossary On
Versions: 1 2 3 4 5 6 7 8 9 10 11 12 13 14 15 16 17
000
FTUS43 KGRR 211148
TAFMKG
TAF
KMKG 211148Z 2112/2212 23020G30KT P6SM BKN100
     FM211500 26015G25KT P6SM -RA OVC080
     FM211800 28013G23KT 6SM -RA OVC040
     FM220000 32011KT P6SM -SHSN OVC035
     FM220400 33009KT P6SM -SN OVC025=

USA.gov is the U.S. government's official web portal to all federal, state and local government web resources and services.